Aérodrome :
LOGIN :

S'inscrire | Disclaimer

   EN    FR    IT 

 










Légende :    VFR   VFR Marginal   IFR   IFR Intensif   IFR Très Intensif
Visi : 
Plafond : 
>= 8 km
>= 3000ft
5 à 8 km
1000 à 3000 ft
1500m à 5 km
500 à 1000 ft
800 à 1500m
200 à 500 ft
< 800m
< 200 ft
Symboles :   Orages  Brouillard  Fortes neiges  Fortes précipitations  Vent > 20 kt
SIGMETs :   Divers  Orages  Givrage  Turbulence  Onde Orograph.  Cendres Volcan.







- Altitude de l'aérodrome : 257 ft
- Code IATA : MAN
- Voir les cartes d'approche


EGCC - Manchester

DERNIER METAR :
  • 241220Z AUTO 25010KT 9999 SCT041 07/02 Q1010 NOSIG

METARs EXPIRÉS :
  • 241150Z AUTO 24009KT 9999 BKN034 BKN041 07/02 Q1010 NOSIG
  • 241120Z AUTO 23008KT 9999 FEW034 BKN040 06/02 Q1010 NOSIG
  • 241050Z AUTO 23008KT 9999 FEW028 BKN034 BKN046 06/02 Q1010 NOSIG
  • 241020Z 21005KT 9999 SCT035 05/02 Q1010 NOSIG
  • 240950Z VRB03KT 9999 SCT039TCU 05/02 Q1010 NOSIG

TAF TAF EGCC
Valide du 24 à 12h jusqu'au 25 à 18h UTC


241056Z 2412/2518 24008KT 9999 SCT035
PROB30
TEMPO 2412/2417 7000 SHRA
TEMPO 2417/2512 7000 SHRA BKN008CB
PROB30
TEMPO 2420/2509 2000 SHRASN BKN004
BECMG 2509/2512 30010KT
PROB30
TEMPO 2510/2518 31015G25KT
ATIS : +44 161 499 2324
Pas de NOTAMs connus pour ce terrain.



MET'MAP, la Météo Aéronautique d'un coup d'oeil ! - Copyright ORBIFLY Décembre 2007 - Disclaimer

ORBIFLY MET'MAP TEAM :

Programmation & Développement : Alexandra Zaïnal
Conception & Développement : Baudouin d'Aumeries
Co-Programmation & Développement : Marc-Olivier Méhu
Soutien technique & logistique : Manuel Goepfert

Contact : metmap@orbifly.com




SOURCES & CREDITS :

   NOAA